Time;durP1;ratioP1;P1;durP2;ratioP2;P2;SDS_P1;SDS_P2;PMS_P1;PMS_P2;Temp;Humidity;BMP_temperature;BMP_pressure;BME280_temperature;BME280_humidity;BME280_pressure;Samples;Min_cycle;Max_cycle;Signal;HPM_P1;HPM_P2
2021/09/02 00:01:08;;;;;;;953.50;859.20;;;;;;;;;;4994955;28;20761;-75
2021/09/02 00:03:34;;;;;;;551.67;359.23;;;;;;;;;;4986424;28;20018;-74
2021/09/02 00:06:00;;;;;;;1851.90;999.58;;;;;;;;;;4980050;28;20751;-75
2021/09/02 00:08:26;;;;;;;1011.60;912.22;;;;;;;;;;4978357;28;20037;-75
2021/09/02 00:10:55;;;;;;;1054.90;951.65;;;;;;;;;;4981092;28;20049;-75
2021/09/02 00:13:21;;;;;;;1105.80;960.25;;;;;;;;;;4994774;28;20030;-75
2021/09/02 00:15:47;;;;;;;437.00;317.40;;;;;;;;;;4998423;28;20537;-74
2021/09/02 00:18:12;;;;;;;905.03;814.03;;;;;;;;;;4993625;28;20034;-75
2021/09/02 00:20:38;;;;;;;832.90;747.22;;;;;;;;;;4996299;28;20101;-75
2021/09/02 00:23:04;;;;;;;1175.18;901.65;;;;;;;;;;5002821;28;20030;-75
2021/09/02 00:25:30;;;;;;;1014.35;913.95;;;;;;;;;;4989729;28;20029;-75
2021/09/02 00:27:56;;;;;;;1006.20;906.92;;;;;;;;;;4998802;28;20031;-76
2021/09/02 00:30:22;;;;;;;1014.42;914.85;;;;;;;;;;4994853;28;20027;-75
2021/09/02 00:32:48;;;;;;;1033.32;931.67;;;;;;;;;;4996374;28;20034;-75
2021/09/02 00:35:14;;;;;;;1028.20;926.92;;;;;;;;;;4994660;28;20081;-76
2021/09/02 00:37:40;;;;;;;1060.88;956.63;;;;;;;;;;4999007;28;20542;-75
2021/09/02 00:40:07;;;;;;;1058.68;954.58;;;;;;;;;;4996041;28;20101;-75
2021/09/02 00:42:33;;;;;;;1060.78;956.47;;;;;;;;;;4999433;28;20110;-75
2021/09/02 00:44:59;;;;;;;1190.03;931.30;;;;;;;;;;4978018;28;20042;-75
2021/09/02 00:47:25;;;;;;;1069.82;964.90;;;;;;;;;;4984359;28;20034;-75
2021/09/02 00:49:52;;;;;;;1059.68;955.47;;;;;;;;;;4977962;28;20038;-75
2021/09/02 00:52:19;;;;;;;1069.28;964.47;;;;;;;;;;4992824;28;20030;-75
2021/09/02 00:54:46;;;;;;;1062.72;958.20;;;;;;;;;;4983640;28;20034;-75
2021/09/02 00:57:12;;;;;;;1060.32;956.22;;;;;;;;;;4998104;28;20057;-75
2021/09/02 00:59:39;;;;;;;1062.68;958.50;;;;;;;;;;4992748;28;20362;-75
2021/09/02 01:02:05;;;;;;;1170.68;964.55;;;;;;;;;;5002128;28;20050;-75
2021/09/02 01:04:31;;;;;;;1065.72;961.03;;;;;;;;;;4999637;28;20034;-75
2021/09/02 01:06:58;;;;;;;826.45;735.72;;;;;;;;;;4993756;28;20578;-74
2021/09/02 01:09:26;;;;;;;463.90;229.35;;;;;;;;;;4997175;28;20038;-76
2021/09/02 01:11:52;;;;;;;697.75;419.98;;;;;;;;;;4996434;28;20085;-75
2021/09/02 01:14:19;;;;;;;1065.25;606.85;;;;;;;;;;4995158;28;20034;-75
2021/09/02 01:16:45;;;;;;;932.83;499.38;;;;;;;;;;4975256;28;20085;-74
2021/09/02 01:19:11;;;;;;;418.35;226.38;;;;;;;;;;4995862;28;20034;-75
2021/09/02 01:21:37;;;;;;;672.55;564.33;;;;;;;;;;4984988;28;20033;-75
2021/09/02 01:24:03;;;;;;;545.42;326.27;;;;;;;;;;4982418;28;20600;-75
2021/09/02 01:26:29;;;;;;;712.90;632.88;;;;;;;;;;4974047;28;20046;-76
2021/09/02 01:28:55;;;;;;;823.60;738.15;;;;;;;;;;4995290;28;20022;-74
2021/09/02 01:31:21;;;;;;;834.95;748.65;;;;;;;;;;4993676;28;20714;-75
2021/09/02 01:33:51;;;;;;;938.53;844.53;;;;;;;;;;4980555;28;20032;-74
2021/09/02 01:36:17;;;;;;;886.45;796.15;;;;;;;;;;4988852;28;20026;-74
2021/09/02 01:38:44;;;;;;;833.35;746.80;;;;;;;;;;4972967;28;20038;-75
2021/09/02 01:41:10;;;;;;;647.45;520.42;;;;;;;;;;4978621;28;20068;-76
2021/09/02 01:43:36;;;;;;;601.80;433.50;;;;;;;;;;4981801;28;20045;-75
2021/09/02 01:46:02;;;;;;;702.03;612.70;;;;;;;;;;4990438;28;20027;-76
2021/09/02 01:48:35;;;;;;;683.22;579.88;;;;;;;;;;4989423;28;20074;-75
2021/09/02 01:51:01;;;;;;;691.65;592.88;;;;;;;;;;4980125;28;20049;-75
2021/09/02 01:53:28;;;;;;;459.48;206.30;;;;;;;;;;4991143;28;20093;-75
2021/09/02 01:55:54;;;;;;;520.75;291.60;;;;;;;;;;4991120;28;20030;-74
2021/09/02 01:58:20;;;;;;;422.40;175.70;;;;;;;;;;4998081;28;20053;-74
2021/09/02 02:00:46;;;;;;;420.45;178.18;;;;;;;;;;4982634;28;20039;-76
2021/09/02 02:03:12;;;;;;;558.97;354.88;;;;;;;;;;4995040;28;20046;-75
2021/09/02 02:05:38;;;;;;;604.72;432.23;;;;;;;;;;5003106;28;20018;-75
2021/09/02 02:08:04;;;;;;;596.33;420.95;;;;;;;;;;4998259;28;20034;-75
2021/09/02 02:10:31;;;;;;;589.92;402.80;;;;;;;;;;4986731;28;20025;-75
2021/09/02 02:12:59;;;;;;;580.63;389.65;;;;;;;;;;4997325;28;20018;-75
2021/09/02 02:15:25;;;;;;;531.95;293.20;;;;;;;;;;4987401;28;20637;-75
2021/09/02 02:17:51;;;;;;;941.67;846.10;;;;;;;;;;4995072;28;20100;-76
2021/09/02 02:20:17;;;;;;;779.78;695.80;;;;;;;;;;4996860;28;20097;-75
2021/09/02 02:22:44;;;;;;;956.50;859.97;;;;;;;;;;4985479;28;20121;-75
2021/09/02 02:25:11;;;;;;;947.67;851.70;;;;;;;;;;4982212;28;20027;-75
2021/09/02 02:27:38;;;;;;;953.17;856.95;;;;;;;;;;4992807;28;20052;-75
2021/09/02 02:30:05;;;;;;;936.92;841.95;;;;;;;;;;4994262;28;20026;-76
2021/09/02 02:32:31;;;;;;;554.13;338.35;;;;;;;;;;4993231;28;20022;-74
2021/09/02 02:34:57;;;;;;;440.13;189.75;;;;;;;;;;4979723;28;20484;-75
2021/09/02 02:37:23;;;;;;;623.72;465.88;;;;;;;;;;4992269;28;20684;-75
2021/09/02 02:39:48;;;;;;;555.80;339.20;;;;;;;;;;4992411;28;20095;-75
2021/09/02 02:42:15;;;;;;;662.80;532.38;;;;;;;;;;4992691;28;20037;-75
2021/09/02 02:44:41;;;;;;;649.97;512.67;;;;;;;;;;4995686;28;20398;-74
2021/09/02 02:47:07;;;;;;;644.58;499.65;;;;;;;;;;4993865;28;20030;-75
2021/09/02 02:49:33;;;;;;;656.03;519.88;;;;;;;;;;4982219;28;20762;-75
2021/09/02 02:51:59;;;;;;;630.33;477.52;;;;;;;;;;4977847;28;20070;-75
2021/09/02 02:54:25;;;;;;;644.97;499.15;;;;;;;;;;4982363;28;20034;-76
2021/09/02 02:56:51;;;;;;;616.58;448.58;;;;;;;;;;4985626;28;20022;-75
2021/09/02 02:59:17;;;;;;;591.55;402.13;;;;;;;;;;4980564;28;20149;-75
2021/09/02 03:01:43;;;;;;;559.25;340.15;;;;;;;;;;4984372;28;20050;-76
2021/09/02 03:04:09;;;;;;;577.13;372.02;;;;;;;;;;4986175;28;20039;-74
2021/09/02 03:06:35;;;;;;;568.47;353.77;;;;;;;;;;4986399;28;20022;-75
2021/09/02 03:09:02;;;;;;;653.50;502.52;;;;;;;;;;4982014;28;20022;-74
2021/09/02 03:11:29;;;;;;;427.23;171.07;;;;;;;;;;4978519;28;20544;-75
2021/09/02 03:13:54;;;;;;;419.02;166.13;;;;;;;;;;4984925;28;20058;-75
2021/09/02 03:16:21;;;;;;;456.35;202.15;;;;;;;;;;4978546;28;20501;-75
2021/09/02 03:18:46;;;;;;;510.52;267.55;;;;;;;;;;4984638;28;20545;-75
2021/09/02 03:21:12;;;;;;;845.60;757.20;;;;;;;;;;4984514;28;20034;-76
2021/09/02 03:23:38;;;;;;;1005.13;904.10;;;;;;;;;;4986631;28;20031;-75
2021/09/02 03:26:04;;;;;;;1022.72;919.80;;;;;;;;;;4979110;28;20018;-76
2021/09/02 03:28:30;;;;;;;1027.57;924.38;;;;;;;;;;4972294;28;20045;-75
2021/09/02 03:30:56;;;;;;;1034.20;930.72;;;;;;;;;;4982801;28;20434;-76
2021/09/02 03:33:22;;;;;;;1029.75;926.45;;;;;;;;;;4987593;28;20100;-76
2021/09/02 03:35:48;;;;;;;1030.22;926.92;;;;;;;;;;4989174;28;20030;-75
2021/09/02 03:38:14;;;;;;;1031.70;928.40;;;;;;;;;;4980897;28;20041;-77
2021/09/02 03:40:40;;;;;;;1025.28;922.38;;;;;;;;;;4982275;28;20035;-75
2021/09/02 03:43:06;;;;;;;1031.82;928.53;;;;;;;;;;4973882;28;20030;-75
2021/09/02 03:45:32;;;;;;;1031.45;928.05;;;;;;;;;;4975609;28;20034;-75
2021/09/02 03:47:58;;;;;;;1028.82;925.53;;;;;;;;;;4975836;28;20027;-75
2021/09/02 03:50:24;;;;;;;1022.13;919.38;;;;;;;;;;4974922;28;20029;-75
2021/09/02 03:52:50;;;;;;;1031.80;928.00;;;;;;;;;;4991271;28;20022;-75
2021/09/02 03:55:16;;;;;;;1037.28;933.95;;;;;;;;;;4979537;28;20034;-75
2021/09/02 03:57:42;;;;;;;1024.00;921.28;;;;;;;;;;4983561;28;20031;-75
2021/09/02 04:00:09;;;;;;;1020.75;918.00;;;;;;;;;;4975991;28;20031;-75
2021/09/02 04:02:36;;;;;;;1026.53;923.50;;;;;;;;;;4997662;28;20129;-75
2021/09/02 04:05:02;;;;;;;1031.85;928.55;;;;;;;;;;4998626;28;20026;-75
2021/09/02 04:07:28;;;;;;;1028.97;925.67;;;;;;;;;;4992139;28;20120;-75
2021/09/02 04:09:53;;;;;;;1025.80;922.85;;;;;;;;;;4992212;28;20035;-75
2021/09/02 04:12:19;;;;;;;1028.85;925.75;;;;;;;;;;4996645;28;20023;-75
2021/09/02 04:14:46;;;;;;;1025.47;922.47;;;;;;;;;;4982499;28;20053;-75
2021/09/02 04:17:11;;;;;;;1024.70;921.90;;;;;;;;;;4980973;28;20034;-74
2021/09/02 04:19:37;;;;;;;1027.25;924.13;;;;;;;;;;4980933;28;20250;-74
2021/09/02 04:22:04;;;;;;;1019.83;916.92;;;;;;;;;;5002401;28;20053;-75
2021/09/02 04:24:29;;;;;;;1012.47;910.17;;;;;;;;;;4997413;28;20060;-75
2021/09/02 04:26:56;;;;;;;1029.43;925.92;;;;;;;;;;4995470;28;20037;-74
2021/09/02 04:29:22;;;;;;;1015.45;912.90;;;;;;;;;;4986443;28;20697;-76
2021/09/02 04:31:48;;;;;;;1028.63;925.65;;;;;;;;;;4995960;28;20034;-75
2021/09/02 04:34:14;;;;;;;1023.38;920.60;;;;;;;;;;4998323;28;20101;-75
2021/09/02 04:36:40;;;;;;;1026.85;923.88;;;;;;;;;;4995766;28;20040;-75
2021/09/02 04:39:06;;;;;;;1026.10;923.17;;;;;;;;;;4980513;28;20084;-75
2021/09/02 04:41:32;;;;;;;1021.85;919.20;;;;;;;;;;4994123;28;20084;-74
2021/09/02 04:43:59;;;;;;;1025.40;922.55;;;;;;;;;;4992184;28;20737;-74
2021/09/02 04:46:25;;;;;;;1019.10;916.60;;;;;;;;;;4981935;28;20022;-74
2021/09/02 04:48:51;;;;;;;1017.22;914.65;;;;;;;;;;4982734;28;20053;-75
2021/09/02 04:51:17;;;;;;;1026.82;923.92;;;;;;;;;;4995380;28;20109;-74
2021/09/02 04:53:44;;;;;;;1022.08;919.55;;;;;;;;;;4979102;28;20031;-75
2021/09/02 04:56:10;;;;;;;1020.78;918.25;;;;;;;;;;4995107;28;20030;-75
2021/09/02 04:58:36;;;;;;;1019.83;917.22;;;;;;;;;;4990573;28;20037;-75
2021/09/02 05:01:02;;;;;;;1021.17;918.58;;;;;;;;;;4992077;28;20027;-75
2021/09/02 05:03:28;;;;;;;1027.07;924.17;;;;;;;;;;4998013;28;20055;-75
2021/09/02 05:05:54;;;;;;;1020.85;918.35;;;;;;;;;;4993240;28;20022;-75
2021/09/02 05:08:22;;;;;;;1015.03;912.75;;;;;;;;;;4987974;28;20026;-75
2021/09/02 05:10:47;;;;;;;1018.67;916.20;;;;;;;;;;4995878;28;20022;-75
2021/09/02 05:13:13;;;;;;;1034.05;930.60;;;;;;;;;;4997070;28;20045;-75
2021/09/02 05:15:39;;;;;;;1022.58;920.03;;;;;;;;;;4993478;28;20073;-75
2021/09/02 05:18:05;;;;;;;1018.38;915.97;;;;;;;;;;4993816;28;20029;-75
2021/09/02 05:20:31;;;;;;;1015.70;913.30;;;;;;;;;;5001889;28;20042;-74
2021/09/02 05:22:58;;;;;;;1013.35;910.95;;;;;;;;;;4976776;28;20033;-75
2021/09/02 05:25:24;;;;;;;1012.60;910.22;;;;;;;;;;4994169;28;20027;-75
2021/09/02 05:27:50;;;;;;;1017.35;914.85;;;;;;;;;;4994336;28;20474;-74
2021/09/02 05:30:16;;;;;;;1030.50;927.30;;;;;;;;;;4979756;28;20454;-76
2021/09/02 05:32:42;;;;;;;1022.25;919.55;;;;;;;;;;4977701;28;20034;-75
2021/09/02 05:35:08;;;;;;;1031.68;928.38;;;;;;;;;;4985752;28;20181;-76
2021/09/02 05:37:34;;;;;;;1023.67;920.88;;;;;;;;;;5001258;28;20030;-75
2021/09/02 05:40:00;;;;;;;1030.82;927.63;;;;;;;;;;4998832;28;20033;-75
2021/09/02 05:42:26;;;;;;;1030.00;926.80;;;;;;;;;;4981424;28;20117;-75
2021/09/02 05:44:52;;;;;;;1026.03;923.13;;;;;;;;;;4983235;28;20121;-75
2021/09/02 05:47:18;;;;;;;1033.68;930.42;;;;;;;;;;5000141;28;20033;-77
2021/09/02 05:49:44;;;;;;;1029.88;927.13;;;;;;;;;;4996634;28;20033;-75
2021/09/02 05:52:10;;;;;;;1034.57;931.47;;;;;;;;;;4981151;28;20116;-74
2021/09/02 05:54:36;;;;;;;1027.30;924.35;;;;;;;;;;4995821;28;20041;-76
2021/09/02 05:57:02;;;;;;;1027.13;924.15;;;;;;;;;;5004080;28;20030;-75
2021/09/02 05:59:28;;;;;;;1036.80;933.30;;;;;;;;;;4980283;28;20453;-75
2021/09/02 06:01:54;;;;;;;1039.00;935.60;;;;;;;;;;5000082;28;20050;-75
2021/09/02 06:04:20;;;;;;;1047.32;943.45;;;;;;;;;;4990035;28;20034;-74
2021/09/02 06:06:46;;;;;;;1046.85;943.03;;;;;;;;;;4983537;28;20137;-75
2021/09/02 06:09:12;;;;;;;1044.60;940.83;;;;;;;;;;4986430;28;20026;-74
2021/09/02 06:11:38;;;;;;;1048.75;944.95;;;;;;;;;;4994033;28;20034;-75
2021/09/02 06:14:04;;;;;;;1042.70;938.95;;;;;;;;;;4979324;28;20038;-75
2021/09/02 06:16:30;;;;;;;1040.57;936.90;;;;;;;;;;4998777;28;20066;-75
2021/09/02 06:18:56;;;;;;;1039.03;935.33;;;;;;;;;;4999901;28;20023;-75
2021/09/02 06:21:22;;;;;;;1044.45;940.70;;;;;;;;;;5002373;28;20076;-76
2021/09/02 06:23:48;;;;;;;1041.78;938.45;;;;;;;;;;4995587;28;20038;-76
2021/09/02 06:26:14;;;;;;;1035.10;932.13;;;;;;;;;;4992963;28;20382;-75
2021/09/02 06:28:40;;;;;;;1031.40;928.42;;;;;;;;;;4994624;28;20053;-74
2021/09/02 06:31:06;;;;;;;1035.95;932.75;;;;;;;;;;4983306;28;20022;-75
2021/09/02 06:33:32;;;;;;;1039.50;936.17;;;;;;;;;;4983043;28;20065;-75
2021/09/02 06:35:58;;;;;;;1052.18;948.08;;;;;;;;;;4979394;28;20045;-75
2021/09/02 06:38:24;;;;;;;1038.47;934.95;;;;;;;;;;4999958;28;20175;-75
2021/09/02 06:40:50;;;;;;;1048.65;944.85;;;;;;;;;;4995816;28;20041;-75
2021/09/02 06:43:16;;;;;;;570.63;374.67;;;;;;;;;;4982011;28;20421;-75
2021/09/02 06:45:42;;;;;;;551.53;343.95;;;;;;;;;;4986119;28;20139;-75
2021/09/02 06:48:07;;;;;;;960.22;864.90;;;;;;;;;;5000812;28;20022;-77
2021/09/02 06:50:33;;;;;;;950.97;856.78;;;;;;;;;;4997124;28;20101;-75
2021/09/02 06:52:59;;;;;;;947.58;853.60;;;;;;;;;;4996333;28;20027;-74
2021/09/02 06:55:25;;;;;;;939.13;845.85;;;;;;;;;;4982676;28;20026;-74
2021/09/02 06:57:51;;;;;;;918.35;826.97;;;;;;;;;;4984285;28;20149;-74
2021/09/02 07:00:19;;;;;;;598.45;437.05;;;;;;;;;;4979882;28;20065;-75
2021/09/02 07:02:45;;;;;;;541.67;337.75;;;;;;;;;;4981707;28;20057;-75
2021/09/02 07:05:11;;;;;;;545.20;343.13;;;;;;;;;;4997240;28;20473;-75
2021/09/02 07:07:37;;;;;;;1077.63;972.95;;;;;;;;;;4994258;28;20390;-74
2021/09/02 07:10:04;;;;;;;1023.67;924.58;;;;;;;;;;4994929;28;20054;-74
2021/09/02 07:12:30;;;;;;;1006.50;908.55;;;;;;;;;;4998109;28;20616;-74
2021/09/02 07:14:56;;;;;;;998.55;901.33;;;;;;;;;;4981029;28;20033;-75
2021/09/02 07:17:22;;;;;;;330.65;151.88;;;;;;;;;;4980642;28;20030;-74
2021/09/02 07:19:48;;;;;;;327.48;142.35;;;;;;;;;;4989031;28;20038;-76
2021/09/02 07:22:14;;;;;;;416.90;373.90;;;;;;;;;;4973140;28;20049;-74
2021/09/02 07:24:40;;;;;;;430.75;385.92;;;;;;;;;;4974143;28;20038;-76
2021/09/02 07:27:05;;;;;;;387.67;346.48;;;;;;;;;;4990200;28;20053;-75
2021/09/02 07:29:32;;;;;;;344.60;268.17;;;;;;;;;;4975082;28;20037;-74
2021/09/02 07:31:58;;;;;;;388.02;346.50;;;;;;;;;;4985105;28;20031;-76
2021/09/02 07:34:24;;;;;;;396.30;354.23;;;;;;;;;;4987066;28;20090;-74
2021/09/02 07:36:50;;;;;;;634.15;524.88;;;;;;;;;;4990258;28;20030;-75
2021/09/02 07:39:17;;;;;;;576.67;416.60;;;;;;;;;;4989543;28;20030;-73
2021/09/02 07:44:37;;;;;;;516.35;302.70;;;;;;;;;;4982999;28;21853;-73
2021/09/02 07:47:03;;;;;;;499.35;271.50;;;;;;;;;;4983712;28;20022;-73
2021/09/02 07:49:29;;;;;;;485.42;257.73;;;;;;;;;;4993328;28;20055;-73
2021/09/02 07:51:55;;;;;;;468.75;247.68;;;;;;;;;;4992298;28;20026;-73
2021/09/02 07:54:21;;;;;;;469.73;238.82;;;;;;;;;;4989628;28;20026;-72
2021/09/02 07:56:47;;;;;;;449.50;217.77;;;;;;;;;;4975169;28;20038;-74
2021/09/02 07:59:13;;;;;;;436.50;204.57;;;;;;;;;;4982594;28;20045;-73
2021/09/02 08:01:39;;;;;;;445.58;213.70;;;;;;;;;;4988089;28;20263;-74
2021/09/02 08:04:05;;;;;;;423.55;199.18;;;;;;;;;;4981194;28;20021;-74
2021/09/02 08:06:30;;;;;;;440.77;212.25;;;;;;;;;;4982051;28;20538;-75
2021/09/02 08:08:56;;;;;;;445.90;221.32;;;;;;;;;;4973971;28;20077;-75
2021/09/02 08:11:27;;;;;;;438.38;212.57;;;;;;;;;;4972454;28;20042;-74
2021/09/02 08:13:53;;;;;;;465.20;235.07;;;;;;;;;;4986686;28;20031;-77
2021/09/02 08:16:19;;;;;;;1132.80;999.90;;;;;;;;;;4979624;28;20036;-80
2021/09/02 08:18:45;;;;;;;1140.25;999.90;;;;;;;;;;4988154;28;20463;-78
2021/09/02 08:21:11;;;;;;;1135.40;999.90;;;;;;;;;;4980125;28;20018;-80
2021/09/02 08:23:37;;;;;;;1139.10;999.90;;;;;;;;;;4993684;28;20034;-79
2021/09/02 08:26:03;;;;;;;1143.85;999.90;;;;;;;;;;4977632;28;20125;-79
2021/09/02 08:28:29;;;;;;;1146.43;999.90;;;;;;;;;;4972506;28;20034;-77
2021/09/02 08:30:55;;;;;;;1144.63;999.90;;;;;;;;;;4974586;28;20018;-78
2021/09/02 08:33:23;;;;;;;1132.45;999.90;;;;;;;;;;4967657;28;20022;-78
2021/09/02 08:35:51;;;;;;;1140.53;999.90;;;;;;;;;;4982399;28;20493;-77
2021/09/02 08:38:17;;;;;;;1137.95;999.90;;;;;;;;;;4979202;28;20026;-77
2021/09/02 08:41:05;;;;;;;1137.78;999.90;;;;;;;;;;4989057;28;20038;-77
2021/09/02 08:43:31;;;;;;;1143.25;999.90;;;;;;;;;;4990267;28;20036;-77
2021/09/02 08:45:57;;;;;;;929.90;840.92;;;;;;;;;;4991529;28;20027;-78
2021/09/02 08:48:24;;;;;;;828.33;746.67;;;;;;;;;;4975053;28;20032;-77
2021/09/02 08:50:50;;;;;;;894.95;808.50;;;;;;;;;;4998431;28;20033;-77
2021/09/02 08:53:16;;;;;;;619.00;516.45;;;;;;;;;;4980361;28;20026;-74
2021/09/02 08:55:42;;;;;;;644.72;569.58;;;;;;;;;;4986857;28;20089;-76
2021/09/02 08:58:08;;;;;;;637.88;557.22;;;;;;;;;;4992597;28;20714;-75
2021/09/02 09:00:34;;;;;;;1138.95;999.90;;;;;;;;;;4983770;28;20117;-75
2021/09/02 09:03:01;;;;;;;1136.85;999.90;;;;;;;;;;4991056;28;20073;-76
2021/09/02 09:05:29;;;;;;;1144.93;999.90;;;;;;;;;;4992474;28;20030;-76
2021/09/02 09:07:56;;;;;;;1147.85;999.90;;;;;;;;;;4974245;28;20031;-76
2021/09/02 09:10:26;;;;;;;1135.15;999.90;;;;;;;;;;4976013;28;20029;-76
2021/09/02 09:12:59;;;;;;;1153.78;999.90;;;;;;;;;;4990010;28;20030;-76
2021/09/02 09:15:27;;;;;;;1150.72;999.90;;;;;;;;;;4984422;28;20409;-76
2021/09/02 09:17:54;;;;;;;1157.95;999.90;;;;;;;;;;4996984;28;20030;-76
2021/09/02 09:20:22;;;;;;;1159.10;999.90;;;;;;;;;;4969742;28;20236;-76
2021/09/02 09:22:49;;;;;;;1152.93;999.90;;;;;;;;;;4989682;28;20501;-76
2021/09/02 09:25:15;;;;;;;747.53;672.95;;;;;;;;;;4972738;28;20197;-76
2021/09/02 09:27:43;;;;;;;968.08;847.95;;;;;;;;;;4990155;28;20026;-76
2021/09/02 09:30:14;;;;;;;1013.25;865.67;;;;;;;;;;4969787;28;20027;-76
2021/09/02 09:32:45;;;;;;;1095.10;993.47;;;;;;;;;;4995577;28;20053;-76
2021/09/02 09:35:13;;;;;;;1134.05;999.90;;;;;;;;;;4989307;28;20026;-76
2021/09/02 09:37:39;;;;;;;1139.60;999.90;;;;;;;;;;4973208;28;20034;-76
2021/09/02 09:40:22;;;;;;;1091.43;989.92;;;;;;;;;;4989346;28;20251;-76
2021/09/02 09:42:58;;;;;;;1157.55;999.90;;;;;;;;;;4989132;28;20571;-76
2021/09/02 09:45:32;;;;;;;506.73;312.80;;;;;;;;;;4977768;28;20026;-76
2021/09/02 09:47:58;;;;;;;510.75;322.27;;;;;;;;;;4986306;28;20026;-76
2021/09/02 09:50:24;;;;;;;512.03;326.90;;;;;;;;;;4989972;28;20033;-76
2021/09/02 09:52:51;;;;;;;499.65;299.48;;;;;;;;;;4994149;28;20035;-76
2021/09/02 09:55:17;;;;;;;512.75;325.48;;;;;;;;;;4990286;28;20060;-75
2021/09/02 09:57:43;;;;;;;515.10;327.15;;;;;;;;;;4985857;28;20026;-75
2021/09/02 10:00:15;;;;;;;525.53;350.50;;;;;;;;;;4990125;28;20752;-75
2021/09/02 10:02:42;;;;;;;543.72;389.52;;;;;;;;;;4993258;28;20679;-75
2021/09/02 10:05:09;;;;;;;546.17;391.75;;;;;;;;;;4979882;28;20031;-75
2021/09/02 10:07:37;;;;;;;528.63;361.75;;;;;;;;;;4974435;28;20049;-76
2021/09/02 10:10:03;;;;;;;357.17;174.77;;;;;;;;;;4980045;28;20034;-76
2021/09/02 10:12:34;;;;;;;338.08;231.30;;;;;;;;;;5000635;28;20077;-76
2021/09/02 10:15:03;;;;;;;350.35;178.90;;;;;;;;;;4995244;28;20033;-76
2021/09/02 10:17:29;;;;;;;419.55;235.85;;;;;;;;;;4991914;28;20095;-76
2021/09/02 10:19:55;;;;;;;963.65;878.45;;;;;;;;;;4995623;28;20031;-76
2021/09/02 10:22:21;;;;;;;1271.65;999.90;;;;;;;;;;4979321;28;20693;-76
2021/09/02 10:24:48;;;;;;;1279.82;999.90;;;;;;;;;;4983247;28;20034;-77
2021/09/02 10:27:17;;;;;;;1289.13;999.90;;;;;;;;;;5004293;28;20022;-77
2021/09/02 10:29:44;;;;;;;1293.15;999.90;;;;;;;;;;4992978;28;20105;-78
2021/09/02 10:32:28;;;;;;;1305.55;999.90;;;;;;;;;;4998582;28;20057;-77
2021/09/02 10:34:55;;;;;;;1309.43;999.90;;;;;;;;;;4990813;28;20259;-78
2021/09/02 10:37:36;;;;;;;1314.88;999.90;;;;;;;;;;4975156;28;20034;-78
2021/09/02 10:42:48;;;;;;;1284.05;999.90;;;;;;;;;;5235760;23;20085;-75
2021/09/02 10:45:36;;;;;;;1274.15;999.90;;;;;;;;;;4989633;28;20095;-75
2021/09/02 10:48:07;;;;;;;1257.85;999.90;;;;;;;;;;4989441;28;20052;-75
2021/09/02 10:50:37;;;;;;;1251.28;999.90;;;;;;;;;;5003291;28;20026;-75
2021/09/02 10:53:13;;;;;;;1235.05;999.90;;;;;;;;;;4993797;28;20266;-76
2021/09/02 10:55:48;;;;;;;1239.50;999.90;;;;;;;;;;4999673;28;20408;-75
2021/09/02 10:58:33;;;;;;;1234.63;999.90;;;;;;;;;;5000169;28;20021;-75
2021/09/02 11:01:20;;;;;;;1224.75;999.90;;;;;;;;;;5009492;28;20137;-75
2021/09/02 11:03:46;;;;;;;1220.50;999.90;;;;;;;;;;5006571;28;20128;-75
2021/09/02 11:06:13;;;;;;;1223.60;999.90;;;;;;;;;;5014067;28;20052;-75
2021/09/02 11:08:40;;;;;;;1240.95;999.90;;;;;;;;;;5007220;28;20622;-75
2021/09/02 11:11:15;;;;;;;1244.20;999.90;;;;;;;;;;5012353;28;20026;-75
2021/09/02 11:13:42;;;;;;;1250.28;999.90;;;;;;;;;;5014852;28;20460;-74
2021/09/02 11:16:12;;;;;;;1257.35;999.90;;;;;;;;;;5017754;28;20087;-75
2021/09/02 11:18:42;;;;;;;1254.07;999.90;;;;;;;;;;5004123;28;20037;-75
2021/09/02 11:21:12;;;;;;;374.75;335.50;;;;;;;;;;5030679;28;20040;-75
2021/09/02 11:23:41;;;;;;;360.52;194.13;;;;;;;;;;5002278;28;20033;-75
2021/09/02 11:26:07;;;;;;;414.17;252.27;;;;;;;;;;5025072;28;20536;-76
2021/09/02 11:28:47;;;;;;;485.23;345.98;;;;;;;;;;5007591;28;20086;-75
2021/09/02 11:31:13;;;;;;;;;;;;;;;;;;5025953;28;20092;-75
2021/09/02 11:33:49;;;;;;;508.10;379.25;;;;;;;;;;5009366;28;19952;-74
2021/09/02 11:36:16;;;;;;;520.55;420.58;;;;;;;;;;5026439;28;20431;-75
2021/09/02 11:38:42;;;;;;;517.53;419.40;;;;;;;;;;5023602;28;20021;-75
2021/09/02 11:41:20;;;;;;;530.75;455.95;;;;;;;;;;5008873;28;20029;-75
2021/09/02 11:43:46;;;;;;;800.97;728.50;;;;;;;;;;5026126;28;20034;-74
2021/09/02 11:46:12;;;;;;;763.70;694.10;;;;;;;;;;5005678;28;20037;-75
2021/09/02 11:48:50;;;;;;;798.45;727.47;;;;;;;;;;4999120;28;20037;-75
2021/09/02 11:51:21;;;;;;;870.08;796.00;;;;;;;;;;5024403;28;20080;-75
2021/09/02 11:53:50;;;;;;;989.30;903.58;;;;;;;;;;5016123;28;20053;-76
2021/09/02 11:56:18;;;;;;;1341.93;999.90;;;;;;;;;;5007797;28;20030;-74
2021/09/02 11:58:45;;;;;;;1330.72;999.90;;;;;;;;;;5002482;28;20060;-75
2021/09/02 12:01:11;;;;;;;1397.95;999.90;;;;;;;;;;5012696;28;20455;-75
2021/09/02 12:03:38;;;;;;;1250.68;999.90;;;;;;;;;;5004510;28;20044;-76
2021/09/02 12:06:04;;;;;;;1421.85;999.90;;;;;;;;;;5019756;28;20033;-75
2021/09/02 12:08:30;;;;;;;1433.13;999.90;;;;;;;;;;5019282;28;20037;-75
2021/09/02 12:10:56;;;;;;;1436.63;999.90;;;;;;;;;;4998841;28;20018;-75
2021/09/02 12:13:27;;;;;;;1442.90;999.90;;;;;;;;;;5019772;28;20025;-76
2021/09/02 12:16:03;;;;;;;1452.43;999.90;;;;;;;;;;5002206;28;20025;-75
2021/09/02 12:18:29;;;;;;;1458.20;999.90;;;;;;;;;;5002025;28;20021;-75
2021/09/02 12:21:16;;;;;;;1469.85;999.90;;;;;;;;;;5003335;28;20044;-75
2021/09/02 12:23:47;;;;;;;1469.68;999.90;;;;;;;;;;5019367;28;20242;-75
2021/09/02 12:26:14;;;;;;;1474.95;999.90;;;;;;;;;;4999971;28;20523;-75
2021/09/02 12:28:45;;;;;;;1477.18;999.90;;;;;;;;;;5019692;28;20595;-75
2021/09/02 12:31:28;;;;;;;1480.72;999.90;;;;;;;;;;5016979;28;20056;-75
2021/09/02 12:33:57;;;;;;;1477.53;999.90;;;;;;;;;;5018599;28;20180;-77
2021/09/02 12:36:24;;;;;;;1467.75;999.90;;;;;;;;;;5004131;28;20026;-76
2021/09/02 12:38:50;;;;;;;1449.63;999.90;;;;;;;;;;5020465;28;20056;-76
2021/09/02 12:41:17;;;;;;;1443.45;999.90;;;;;;;;;;5004338;28;20029;-76
2021/09/02 12:44:02;;;;;;;1423.40;999.90;;;;;;;;;;5014041;28;20029;-76
2021/09/02 12:46:28;;;;;;;1404.50;999.90;;;;;;;;;;5001096;28;20037;-76
2021/09/02 12:49:11;;;;;;;1392.30;999.90;;;;;;;;;;5006377;28;20493;-76
2021/09/02 12:51:37;;;;;;;1385.78;999.90;;;;;;;;;;5011826;28;20570;-75
2021/09/02 12:54:03;;;;;;;1372.38;999.90;;;;;;;;;;5000298;28;20124;-76
2021/09/02 12:56:36;;;;;;;1358.57;999.90;;;;;;;;;;4998788;28;20464;-75
2021/09/02 12:59:05;;;;;;;1344.25;999.90;;;;;;;;;;5002747;28;20396;-76
2021/09/02 13:01:31;;;;;;;1328.70;999.90;;;;;;;;;;5002568;28;20108;-76
2021/09/02 13:04:01;;;;;;;1327.13;999.90;;;;;;;;;;5015918;28;20524;-75
2021/09/02 13:06:28;;;;;;;1308.57;999.90;;;;;;;;;;5024238;28;20396;-75
2021/09/02 13:08:54;;;;;;;1309.60;999.90;;;;;;;;;;5023757;28;20033;-75
2021/09/02 13:11:20;;;;;;;1305.45;999.90;;;;;;;;;;5006800;28;20023;-74
2021/09/02 13:13:46;;;;;;;1297.57;999.90;;;;;;;;;;5000982;28;20052;-74
2021/09/02 13:16:12;;;;;;;1284.75;999.90;;;;;;;;;;5000440;28;20497;-74
2021/09/02 13:18:38;;;;;;;1274.78;999.90;;;;;;;;;;4994725;28;20333;-75
2021/09/02 13:21:04;;;;;;;1264.90;999.90;;;;;;;;;;5021691;28;20466;-73
2021/09/02 13:23:30;;;;;;;1267.63;999.90;;;;;;;;;;5006880;28;20072;-73
2021/09/02 13:25:56;;;;;;;1267.55;999.90;;;;;;;;;;5018750;28;20028;-74
2021/09/02 13:28:22;;;;;;;1251.32;999.90;;;;;;;;;;5003825;28;20583;-73
2021/09/02 13:30:48;;;;;;;1254.38;999.90;;;;;;;;;;5018931;28;20030;-74
2021/09/02 13:33:14;;;;;;;1262.47;999.90;;;;;;;;;;5019059;28;20227;-74
2021/09/02 13:35:40;;;;;;;1260.03;999.90;;;;;;;;;;5004047;28;20111;-74
2021/09/02 13:38:06;;;;;;;1242.40;999.90;;;;;;;;;;5007209;28;20120;-75
2021/09/02 13:40:32;;;;;;;1240.10;999.90;;;;;;;;;;5019988;28;20491;-74
2021/09/02 13:42:58;;;;;;;1249.93;999.90;;;;;;;;;;5009164;28;20057;-74
2021/09/02 13:45:24;;;;;;;1249.13;999.90;;;;;;;;;;5008237;28;20032;-75
2021/09/02 13:47:50;;;;;;;1263.95;999.90;;;;;;;;;;4997235;28;20076;-74
2021/09/02 13:50:16;;;;;;;1293.15;999.90;;;;;;;;;;5003259;28;20458;-74
2021/09/02 13:52:42;;;;;;;1331.80;999.90;;;;;;;;;;4997772;28;20037;-74